Flight Track Log - Related Links

Times and Time Zones

All times are in EDT time to prevent confusion due to time zone crossing. See the N144KK flight status page for this flight to view local times or setup timezone preferences in your user account.

Time Position Orientation Groundspeed Altitude Reporting Facility
EDT Latitude Longitude Course Direction KTS MPH feet Rate Location/Type
Sun 11:01:28 PM 37.7203 -122.2417 312° West 153 176 1,200  Level Oakland Center
Sun 11:02:29 PM 37.7589 -122.2958 312° West 204 235 4,900 3,738 Climbing Oakland Center
Sun 11:03:30 PM 37.8297 -122.3325 338° Northwest 281 323 8,800 3,934 Climbing Oakland Center
Sun 11:04:31 PM 37.9342 -122.3397 357° North 313 360 12,900 3,492 Climbing Oakland Center
Sun 11:05:32 PM 38.0417 -122.3436 358° North 388 447 15,900 3,098 Climbing Oakland Center
Sun 11:06:33 PM 38.1539 -122.3519 357° North 405 466 19,200 3,098 Climbing Oakland Center
Sun 11:07:34 PM 38.2736 -122.3581 358° North 424 488 22,200 3,197 Climbing Oakland Center
Sun 11:08:35 PM 38.3981 -122.3664 357° North 440 506 25,700 3,366 Climbing Oakland Center
Sun 11:09:37 PM 38.5253 -122.3736 357° North 453 521 29,100 2,829 Climbing Oakland Center
Sun 11:10:38 PM 38.6542 -122.3825 357° North 460 529 31,500 2,016 Climbing Oakland Center
Sun 11:11:39 PM 38.8044 -122.3911 357° North 490 564 33,200 1,721 Climbing Oakland Center
Sun 11:17:19 PM 39.4740 -122.4885 357° North 140 161 43,000 1,585 Climbing FlightAware ADS-B
Sun 11:17:50 PM 39.6536 -122.5001 357° North 140 161 43,000  Level FlightAware ADS-B
Sun 11:19:16 PM 39.6328 -122.4990 178° South 140 161 43,000 1,962 Level FlightAware ADS-B
Sun 11:19:48 PM 39.9097 -122.5165 357° North 140 161 3,344 Descending FlightAware ADS-B
Sun 11:20:38 PM 40.0460 -122.5252 357° North 140 161 33,200 Level FlightAware ADS-B
Sun 11:21:18 PM 40.1289 -122.5305 357° North 140 161 49,800 36,857 Climbing FlightAware ADS-B
Sun 11:21:48 PM 40.1840 -122.5340 357° North 140 161 43,000 -5,829 Descending FlightAware ADS-B
Sun 11:22:28 PM 40.2973 -122.5412 357° North 140 161 43,000 4,435 Level FlightAware ADS-B
Sun 11:23:20 PM 40.4080 -122.5481 357° North 140 161 49,800  Climbing FlightAware ADS-B
Sun 11:23:50 PM 40.4841 -122.5529 357° North 140 161 43,000 -5,667 Descending FlightAware ADS-B
Sun 11:24:32 PM 40.5507 -122.5572 357° North 140 161 43,000  Level FlightAware ADS-B
Sun 11:25:48 PM 40.7550 -122.5700 357° North 140 161 43,000  Level FlightAware ADS-B
Sun 11:26:38 PM 40.8658 -122.5771 357° North 140 161 43,000  Level FlightAware ADS-B
Sun 11:27:23 PM 40.9680 -122.5833 357° North 140 161 43,000  Level FlightAware ADS-B
Sun 11:27:56 PM 41.0142 -122.5319 357° North 493 567 43,000  Level Oakland Center
Sun 11:28:57 PM 41.1519 -122.5469 355° North 498 573 43,000  Level Oakland Center
Sun 11:29:58 PM 41.3139 -122.5569 357° North 486 559 43,000  Level Oakland Center
Sun 11:30:39 PM 41.3956 -122.5622 357° North 490 564 43,000  Level Seattle Center
Sun 11:31:39 PM 41.5181 -122.5689 358° North 486 559 43,000  Level Seattle Center
Sun 11:32:40 PM 41.6522 -122.5778 357° North 482 555 43,000  Level Seattle Center
Sun 11:33:41 PM 41.7889 -122.5867 357° North 486 559 43,000  Level Seattle Center
Sun 11:34:41 PM 41.9233 -122.5947 357° North 483 556 43,000  Level Seattle Center
Sun 11:35:42 PM 42.0589 -122.6044 357° North 485 558 43,000  Level Seattle Center
Sun 11:36:43 PM 42.1967 -122.6131 357° North 493 567 43,000  Level Seattle Center
Sun 11:37:43 PM 42.3592 -122.6247 357° North 489 563 43,000  Level Seattle Center
Sun 11:38:44 PM 42.4967 -122.6314 358° North 492 566 43,000  Level Seattle Center
Sun 11:39:45 PM 42.6331 -122.6411 357° North 490 564 43,000  Level Seattle Center
Sun 11:40:46 PM 42.7633 -122.6500 357° North 493 567 43,000  Level Seattle Center
Sun 11:41:46 PM 42.8975 -122.6600 357° North 486 559 43,000  Level Seattle Center
Sun 11:42:47 PM 43.0328 -122.6703 357° North 489 563 43,000  Level Seattle Center
Sun 11:43:48 PM 43.1697 -122.6800 357° North 502 578 43,000  Level Seattle Center
Sun 11:44:48 PM 43.3075 -122.6892 357° North 498 573 43,000 -1,091 Level Seattle Center
Sun 11:45:49 PM 43.4453 -122.6997 357° North 502 578 40,800 -2,361 Descending Seattle Center
Sun 11:46:50 PM 43.5861 -122.7094 357° North 507 583 38,200 -2,628 Descending Seattle Center
Sun 11:47:50 PM 43.7264 -122.7200 357° North 507 583 35,500 -2,678 Descending Seattle Center
Sun 11:48:51 PM 43.8656 -122.7306 357° North 506 582 32,800 -2,656 Descending Seattle Center
Sun 11:49:52 PM 44.0069 -122.7400 357° North 513 590 30,100 -2,876 Descending Seattle Center
Sun 11:50:52 PM 44.1706 -122.7442 359° North 499 574 27,000 -2,777 Descending Seattle Center
Sun 11:51:53 PM 44.3006 -122.7378 North 481 554 24,500 -2,508 Descending Seattle Center
Sun 11:52:54 PM 44.4303 -122.7250 North 478 550 21,900 -2,479 Descending Seattle Center
Sun 11:53:54 PM 44.5600 -122.7117 North 474 545 19,500 -2,281 Descending Seattle Center
Sun 11:54:55 PM 44.6825 -122.6997 North 455 524 17,300 -2,330 Descending Seattle Center
Sun 11:55:37 PM 44.7703 -122.6925 North 424 488 15,500 -2,300 Descending Seattle Center
Sun 11:55:55 PM 44.7997 -122.6883 North 431 496 15,000 -2,270 Descending Seattle Center
Sun 11:56:14 PM 44.8425 -122.6850 North 423 487 14,100 -2,066 Descending Seattle Center
Sun 11:56:56 PM 44.9125 -122.6800 North 413 475 12,900 -1,900 Descending Seattle Center
Sun 11:57:14 PM 44.9525 -122.6833 357° North 370 426 12,200 -1,869 Descending Seattle Center
Sun 11:57:57 PM 45.0111 -122.6944 352° North 361 415 11,000 -1,770 Descending Seattle Center
Sun 11:58:15 PM 45.0456 -122.7039 349° North 336 387 10,400 -1,700 Descending Seattle Center
Sun 11:58:57 PM 45.0989 -122.7139 352° North 332 382 9,300 -2,800 Descending Seattle Center
Sun 11:59:15 PM 45.1342 -122.7231 350° North 321 369 7,600 -2,656 Descending Seattle Center
Sun 11:59:58 PM 45.1889 -122.7344 352° North 328 377 6,600 -1,377 Descending Seattle Center
Mon 12:00:16 AM 45.2250 -122.7447 349° North 330 380 6,200 -1,279 Descending Seattle Center
Mon 12:00:59 AM 45.2742 -122.7567 350° North 320 368 5,300 -1,082 Descending Seattle Center
Mon 12:01:17 AM 45.3042 -122.7617 353° North 286 329 5,100 -1,000 Descending Seattle Center
Mon 12:01:59 AM 45.3503 -122.7728 350° North 292 336 4,300 -1,100 Descending Seattle Center
Mon 12:02:17 AM 45.3828 -122.7853 345° North 257 296 4,000 -1,377 Descending Seattle Center
Mon 12:03:00 AM 45.4111 -122.8128 326° Northwest 262 302 2,900 -1,377 Descending Seattle Center
Mon 12:03:18 AM 45.4350 -122.8411 320° Northwest 214 246 2,600 -885 Descending Seattle Center
Mon 12:04:01 AM 45.4661 -122.8733 324° Northwest 220 253 2,000 -787 Descending Seattle Center
Mon 12:04:19 AM 45.4700 -122.8761 333° Northwest 138 159 1,800 -900 Descending Seattle Center
Mon 12:05:01 AM 45.4994 -122.9092 322° Northwest 180 207 1,100 -800 Descending Seattle Center
Mon 12:05:19 AM 45.5039 -122.9150 317° Northwest 130 150 1,000 -590 Descending Seattle Center
Mon 12:06:02 AM 45.5278 -122.9364 328° Northwest 150 173 500 -404 Descending Seattle Center
Mon 12:07:03 AM 45.5561 -122.9644 325° Northwest 146 168 300 -197 Descending Seattle Center

Login

Don't have an account? Register now (free) for customized features, flight alerts, and more!